Rocky Hill, Connecticut
Current Conditions -  °F | °C
As of 12:53 PM on Thursday 29 Jan 2015 (Local Time) from KHFD Reporting Station
Clear Clear  
Wind Chill: 24°   Ceiling: Unl
Heat Index: 24°   Visibility: 10mi
Dew Point:   Wind: 0mph
Humidity: 38%   Direction: NA
Pressure: 30.25"   Gusts: NA
Location:  41.67°N, 72.64°W
Report Text: KHFD 291753Z 00000KT 10SM CLR M04/M17 A3025 RMK AO2 SNB28E37 SLP244 P0000 60000 T10441167 11044 21183 58035
Loading
Personal Weather Stations






























Interactive Weather Map New forecast layout! Learn more

10-Day Weather Forecast

Advertisements
Track Severe Weather on mobile